Gamboula Airport


Codes: FEGG/
Name: Gamboula Airport
City: Gamboula
Country: Central African Republic
Elevation: 2001 ft.

Photos at Gamboula Airport


   Photos courtesy of SpottingLog. You can add your own sightings and photos by signing up for a free trial today.



No photos found.

Weather at Gamboula Airport


Time (UTC)DescriptionTempratureWindCloud coverageVisibilityPressureHumidity
23-May-2024 21:00Light Rain22°C2 mph, SW69%10000m1011hPa89%
24-May-2024 00:00Light Rain21°C2 mph, SW62%10000m1012hPa94%
24-May-2024 03:00Light Rain21°C2 mph, S95%10000m1012hPa98%
24-May-2024 06:00Light Rain22°C2 mph, W97%10000m1014hPa96%
24-May-2024 09:00Broken Clouds30°C2 mph, W82%10000m1013hPa57%
24-May-2024 12:00Light Rain30°C2 mph, NW83%10000m1010hPa58%
24-May-2024 15:00Light Rain27°C4 mph, SW77%10000m1009hPa71%
24-May-2024 18:00Light Rain21°C2 mph, S73%10000m1011hPa95%
24-May-2024 21:00Light Rain21°C2 mph, SW36%10000m1014hPa97%
25-May-2024 00:00Light Rain21°C2 mph, SW56%10000m1013hPa98%
25-May-2024 03:00Light Rain20°C2 mph, SW75%10000m1013hPa99%
25-May-2024 06:00Light Rain21°C2 mph, W88%10000m1015hPa97%
25-May-2024 09:00Overcast Clouds25°C4 mph, W98%10000m1016hPa77%
25-May-2024 12:00Light Rain28°C4 mph, S84%10000m1013hPa74%
25-May-2024 15:00Light Rain25°C2 mph, W95%10000m1011hPa85%
25-May-2024 18:00Overcast Clouds23°C2 mph, SW97%10000m1012hPa91%
25-May-2024 21:00Broken Clouds21°C2 mph, SW57%10000m1014hPa96%
26-May-2024 00:00Scattered Clouds20°C2 mph, SW42%10000m1013hPa97%
26-May-2024 03:00Scattered Clouds20°C2 mph, W28%10000m1014hPa98%
26-May-2024 06:00Broken Clouds22°C2 mph, W51%10000m1015hPa90%
26-May-2024 09:00Broken Clouds29°C4 mph, SW59%10000m1014hPa57%
26-May-2024 12:00Broken Clouds33°C0 mph, S71%10000m1011hPa44%
26-May-2024 15:00Scattered Clouds33°C2 mph, E38%10000m1009hPa40%
26-May-2024 18:00Light Rain25°C0 mph, NE44%10000m1011hPa69%
26-May-2024 21:00Overcast Clouds23°C2 mph, SW92%10000m1013hPa80%
27-May-2024 00:00Light Rain21°C2 mph, SW81%10000m1013hPa91%
27-May-2024 03:00Light Rain20°C2 mph, W37%10000m1013hPa95%
27-May-2024 06:00Light Rain22°C2 mph, W44%10000m1014hPa89%
27-May-2024 09:00Few Clouds30°C4 mph, W13%10000m1014hPa55%
27-May-2024 12:00Few Clouds35°C2 mph, NE11%10000m1011hPa38%
27-May-2024 15:00Scattered Clouds34°C4 mph, E40%10000m1008hPa40%
27-May-2024 18:00Scattered Clouds27°C2 mph, S32%10000m1009hPa62%
27-May-2024 21:00Light Rain22°C2 mph, SW71%10000m1013hPa89%
28-May-2024 00:00Light Rain21°C2 mph, SW85%10000m1012hPa96%
28-May-2024 03:00Light Rain21°C2 mph, W50%10000m1013hPa98%
28-May-2024 06:00Light Rain22°C2 mph, W66%10000m1014hPa95%
28-May-2024 09:00Broken Clouds31°C4 mph, SW84%10000m1013hPa54%
28-May-2024 12:00Broken Clouds35°C4 mph, SE63%10000m1010hPa37%
28-May-2024 15:00Broken Clouds33°C4 mph, SE80%10000m1008hPa43%
28-May-2024 18:00Broken Clouds27°C4 mph, SE56%10000m1010hPa67%